AAY4569 KBWI-KCAE
Flight info
| Callsign | AAY4569 |
|---|---|
| Flight time | N/A |
| Altitude | 34000 |
| Route | TERPZ8 RRSIN GSO |
| Aircraft | A319/M-SDE3FGHIRWY/LB1 |
Departure
| Time | 2026-05-01 14:26 |
|---|---|
| Airport | Baltimore/Washington International Thurgood Marshall Airport (KBWI) |
Arrival
| Time | N/A |
|---|---|
| Airport | Columbia Metropolitan Airport (KCAE) |
| Time | Latitude | Longitude | Altitude | Speed | Heading |
|---|---|---|---|---|---|
| 2026-05-01 14:07 | 39.18088 | -76.66538 | 155 ft | 0 kts | 159° |
| 2026-05-01 14:16 | 39.18093 | -76.66540 | 155 ft | 3 kts | 159° |
| 2026-05-01 14:17 | 39.18110 | -76.66549 | 155 ft | 3 kts | 159° |
| 2026-05-01 14:17 | 39.18133 | -76.66560 | 155 ft | 3 kts | 143° |
| 2026-05-01 14:17 | 39.18139 | -76.66578 | 155 ft | 2 kts | 65° |
| 2026-05-01 14:17 | 39.18139 | -76.66580 | 155 ft | 0 kts | 65° |
| 2026-05-01 14:20 | 39.18156 | -76.66547 | 155 ft | 9 kts | 52° |
| 2026-05-01 14:20 | 39.18243 | -76.66397 | 156 ft | 18 kts | 54° |
| 2026-05-01 14:20 | 39.18309 | -76.66310 | 155 ft | 9 kts | 1° |
| 2026-05-01 14:21 | 39.18382 | -76.66273 | 154 ft | 14 kts | 71° |
| 2026-05-01 14:21 | 39.18333 | -76.66191 | 150 ft | 24 kts | 144° |
| 2026-05-01 14:21 | 39.18199 | -76.66065 | 149 ft | 18 kts | 142° |
| 2026-05-01 14:22 | 39.18108 | -76.65981 | 151 ft | 11 kts | 146° |
| 2026-05-01 14:22 | 39.18036 | -76.66003 | 152 ft | 22 kts | 213° |
| 2026-05-01 14:22 | 39.17949 | -76.65974 | 150 ft | 16 kts | 148° |
| 2026-05-01 14:22 | 39.17854 | -76.65899 | 146 ft | 16 kts | 148° |
| 2026-05-01 14:23 | 39.17758 | -76.65822 | 146 ft | 17 kts | 148° |
| 2026-05-01 14:23 | 39.17660 | -76.65743 | 145 ft | 17 kts | 148° |
| 2026-05-01 14:23 | 39.17562 | -76.65667 | 141 ft | 13 kts | 159° |
| 2026-05-01 14:23 | 39.17506 | -76.65657 | 142 ft | 6 kts | 185° |
| 2026-05-01 14:24 | 39.17428 | -76.65622 | 141 ft | 11 kts | 111° |
| 2026-05-01 14:24 | 39.17393 | -76.65529 | 140 ft | 15 kts | 151° |
| 2026-05-01 14:24 | 39.17373 | -76.65522 | 140 ft | 0 kts | 179° |
| 2026-05-01 14:25 | 39.17324 | -76.65528 | 140 ft | 8 kts | 195° |
| 2026-05-01 14:25 | 39.17281 | -76.65576 | 140 ft | 10 kts | 258° |
| 2026-05-01 14:25 | 39.17292 | -76.65734 | 141 ft | 44 kts | 274° |
| 2026-05-01 14:25 | 39.17330 | -76.66405 | 152 ft | 105 kts | 274° |
| 2026-05-01 14:26 | 39.17423 | -76.67953 | 1176 ft | 290 kts | 278° |